Trappe, Maryland
Current Conditions -  °F | °C
As of 1:48 AM on Wednesday 26 Nov 2014 (Local Time) from KCGE Reporting Station
Scattered Clouds Scattered Clouds  
Wind Chill: 46°   Ceiling: Unl
Heat Index: 48°   Visibility: 10mi
Dew Point: 41°   Wind: 5mph
Humidity: 76%   Direction: 40°NE
Pressure: 30.13"   Gusts: NA
Location:  38.66°N, 76.06°W
Report Text: KCGE 260648Z AUTO 04004KT 10SM SCT008 SCT012 09/05 A3013 RMK AO1
Loading
Personal Weather Stations






























Interactive Weather Map New forecast layout! Learn more

10-Day Weather Forecast

Advertisements
Track Severe Weather on mobile